RYR220 LHBP-EPKK
Flight info
| Callsign | RYR220 |
|---|---|
| Flight time | 0h 34m |
| Altitude | 24000 |
| Route | LITKU2B LITKU Y301 KALIF DCT MEBAN MEBAN5G |
| Aircraft | B738/M-SDE3L/L |
Departure
| Time | 2026-05-04 19:52 |
|---|---|
| Airport | Budapest Liszt Ferenc International Airport (LHBP) |
Arrival
| Time | 2026-05-04 20:27 |
|---|---|
| Airport | Kraków John Paul II International Airport (EPKK) |
| Time | Latitude | Longitude | Altitude | Speed | Heading |
|---|---|---|---|---|---|
| 2026-05-04 19:24 | 47.43624 | 19.25911 | 456 ft | 0 kts | 312° |
| 2026-05-04 19:39 | 47.43624 | 19.25913 | 456 ft | 2 kts | 312° |
| 2026-05-04 19:39 | 47.43609 | 19.25936 | 456 ft | 4 kts | 318° |
| 2026-05-04 19:39 | 47.43589 | 19.25950 | 455 ft | 4 kts | 15° |
| 2026-05-04 19:39 | 47.43569 | 19.25932 | 454 ft | 2 kts | 42° |
| 2026-05-04 19:40 | 47.43565 | 19.25927 | 454 ft | 0 kts | 42° |
| 2026-05-04 19:45 | 47.43569 | 19.25933 | 454 ft | 3 kts | 42° |
| 2026-05-04 19:45 | 47.43598 | 19.25972 | 453 ft | 9 kts | 42° |
| 2026-05-04 19:46 | 47.43663 | 19.26036 | 456 ft | 13 kts | 7° |
| 2026-05-04 19:46 | 47.43752 | 19.25978 | 456 ft | 15 kts | 354° |
| 2026-05-04 19:46 | 47.43845 | 19.26059 | 457 ft | 17 kts | 43° |
| 2026-05-04 19:46 | 47.43891 | 19.26120 | 457 ft | 2 kts | 41° |
| 2026-05-04 19:47 | 47.43904 | 19.26138 | 457 ft | 6 kts | 41° |
| 2026-05-04 19:47 | 47.43931 | 19.26174 | 456 ft | 3 kts | 42° |
| 2026-05-04 19:47 | 47.43959 | 19.26212 | 457 ft | 8 kts | 42° |
| 2026-05-04 19:47 | 47.43989 | 19.26253 | 458 ft | 7 kts | 43° |
| 2026-05-04 19:48 | 47.43990 | 19.26254 | 458 ft | 0 kts | 43° |
| 2026-05-04 19:50 | 47.43991 | 19.26256 | 458 ft | 1 kts | 43° |
| 2026-05-04 19:50 | 47.44004 | 19.26274 | 459 ft | 4 kts | 43° |
| 2026-05-04 19:50 | 47.44029 | 19.26311 | 461 ft | 6 kts | 47° |
| 2026-05-04 19:50 | 47.44051 | 19.26357 | 464 ft | 5 kts | 64° |
| 2026-05-04 19:51 | 47.44065 | 19.26411 | 469 ft | 5 kts | 76° |
| 2026-05-04 19:51 | 47.44069 | 19.26481 | 470 ft | 9 kts | 91° |
| 2026-05-04 19:51 | 47.44046 | 19.26560 | 469 ft | 0 kts | 130° |
| 2026-05-04 19:52 | 47.44037 | 19.26576 | 469 ft | 13 kts | 130° |
| 2026-05-04 19:52 | 47.43765 | 19.27015 | 471 ft | 101 kts | 131° |
| 2026-05-04 19:52 | 47.43129 | 19.28059 | 499 ft | 170 kts | 132° |
| 2026-05-04 19:52 | 47.42258 | 19.29436 | 1219 ft | 188 kts | 134° |
| 2026-05-04 19:53 | 47.41258 | 19.30522 | 2558 ft | 166 kts | 163° |
| 2026-05-04 19:53 | 47.40210 | 19.31235 | 3515 ft | 171 kts | 152° |
| 2026-05-04 19:53 | 47.39182 | 19.32301 | 4063 ft | 196 kts | 145° |
| 2026-05-04 19:53 | 47.38059 | 19.33711 | 4303 ft | 228 kts | 140° |
| 2026-05-04 19:54 | 47.36866 | 19.35399 | 4917 ft | 242 kts | 138° |
| 2026-05-04 19:54 | 47.35855 | 19.37483 | 5419 ft | 266 kts | 111° |
| 2026-05-04 19:54 | 47.35726 | 19.40246 | 6134 ft | 279 kts | 78° |
| 2026-05-04 19:54 | 47.36612 | 19.42784 | 6991 ft | 284 kts | 50° |
| 2026-05-04 19:55 | 47.38034 | 19.44840 | 7851 ft | 288 kts | 42° |
| 2026-05-04 19:55 | 47.39562 | 19.46787 | 8646 ft | 293 kts | 41° |
| 2026-05-04 19:55 | 47.41127 | 19.48752 | 9494 ft | 297 kts | 41° |
| 2026-05-04 19:55 | 47.42705 | 19.50755 | 10300 ft | 301 kts | 41° |
| 2026-05-04 19:56 | 47.44338 | 19.52853 | 10653 ft | 324 kts | 41° |
| 2026-05-04 19:56 | 47.46097 | 19.55136 | 10839 ft | 348 kts | 42° |
| 2026-05-04 19:56 | 47.47967 | 19.57579 | 11165 ft | 366 kts | 42° |
| 2026-05-04 19:56 | 47.49890 | 19.60101 | 11825 ft | 372 kts | 42° |
| 2026-05-04 19:57 | 47.51830 | 19.62644 | 12621 ft | 374 kts | 40° |
| 2026-05-04 19:57 | 47.54043 | 19.64696 | 13370 ft | 378 kts | 21° |
| 2026-05-04 19:57 | 47.56613 | 19.65520 | 14107 ft | 381 kts | 1° |
| 2026-05-04 19:57 | 47.59263 | 19.65353 | 14837 ft | 382 kts | 355° |
| 2026-05-04 19:58 | 47.61923 | 19.65083 | 15527 ft | 385 kts | 355° |
| 2026-05-04 19:58 | 47.64614 | 19.64814 | 16211 ft | 388 kts | 356° |
| 2026-05-04 19:58 | 47.67287 | 19.64561 | 16879 ft | 391 kts | 356° |
| 2026-05-04 19:58 | 47.70020 | 19.64315 | 17556 ft | 395 kts | 356° |
| 2026-05-04 19:59 | 47.72769 | 19.64077 | 18218 ft | 398 kts | 356° |
| 2026-05-04 19:59 | 47.75542 | 19.63844 | 18812 ft | 401 kts | 356° |
| 2026-05-04 19:59 | 47.78346 | 19.63612 | 19374 ft | 404 kts | 356° |
| 2026-05-04 19:59 | 47.81159 | 19.63380 | 19939 ft | 407 kts | 356° |
| 2026-05-04 20:00 | 47.83994 | 19.63147 | 20504 ft | 410 kts | 356° |
| 2026-05-04 20:00 | 47.86848 | 19.62912 | 21033 ft | 413 kts | 356° |
| 2026-05-04 20:00 | 47.89728 | 19.62675 | 21569 ft | 416 kts | 356° |
| 2026-05-04 20:00 | 47.92630 | 19.62435 | 22099 ft | 419 kts | 356° |
| 2026-05-04 20:01 | 47.95525 | 19.62195 | 22616 ft | 422 kts | 356° |
| 2026-05-04 20:01 | 47.98464 | 19.61952 | 23129 ft | 425 kts | 356° |
| 2026-05-04 20:01 | 48.01427 | 19.61706 | 23630 ft | 428 kts | 356° |
| 2026-05-04 20:01 | 48.04419 | 19.61458 | 23996 ft | 431 kts | 356° |
| 2026-05-04 20:02 | 48.07413 | 19.61209 | 24030 ft | 433 kts | 356° |
| 2026-05-04 20:02 | 48.10455 | 19.60955 | 24052 ft | 442 kts | 356° |
| 2026-05-04 20:02 | 48.13552 | 19.60697 | 24064 ft | 451 kts | 356° |
| 2026-05-04 20:02 | 48.16720 | 19.60432 | 24057 ft | 459 kts | 356° |
| 2026-05-04 20:03 | 48.19935 | 19.60164 | 24056 ft | 466 kts | 356° |
| 2026-05-04 20:03 | 48.23162 | 19.59894 | 24055 ft | 473 kts | 356° |
| 2026-05-04 20:03 | 48.26504 | 19.59592 | 24054 ft | 478 kts | 355° |
| 2026-05-04 20:03 | 48.29830 | 19.59265 | 24046 ft | 479 kts | 355° |
| 2026-05-04 20:04 | 48.33098 | 19.58935 | 24039 ft | 477 kts | 355° |
| 2026-05-04 20:04 | 48.36406 | 19.58602 | 24039 ft | 476 kts | 355° |
| 2026-05-04 20:04 | 48.39715 | 19.58273 | 24047 ft | 476 kts | 355° |
| 2026-05-04 20:04 | 48.43026 | 19.57946 | 24052 ft | 477 kts | 355° |
| 2026-05-04 20:05 | 48.46336 | 19.57620 | 24057 ft | 477 kts | 355° |
| 2026-05-04 20:05 | 48.49651 | 19.57295 | 24060 ft | 478 kts | 355° |
| 2026-05-04 20:05 | 48.52972 | 19.57190 | 24058 ft | 477 kts | 0° |
| 2026-05-04 20:05 | 48.56284 | 19.57394 | 24063 ft | 477 kts | 2° |
| 2026-05-04 20:06 | 48.59612 | 19.57701 | 24066 ft | 478 kts | 3° |
| 2026-05-04 20:06 | 48.62917 | 19.58032 | 24059 ft | 478 kts | 3° |
| 2026-05-04 20:06 | 48.66252 | 19.58356 | 24063 ft | 478 kts | 2° |
| 2026-05-04 20:06 | 48.69572 | 19.58657 | 24060 ft | 478 kts | 2° |
| 2026-05-04 20:07 | 48.72885 | 19.58937 | 24061 ft | 477 kts | 2° |
| 2026-05-04 20:07 | 48.76207 | 19.59205 | 24064 ft | 477 kts | 2° |
| 2026-05-04 20:07 | 48.79519 | 19.59464 | 24074 ft | 478 kts | 2° |
| 2026-05-04 20:07 | 48.82849 | 19.59723 | 24068 ft | 478 kts | 2° |
| 2026-05-04 20:08 | 48.86172 | 19.59981 | 24067 ft | 478 kts | 2° |
| 2026-05-04 20:08 | 48.89494 | 19.60241 | 24066 ft | 478 kts | 2° |
| 2026-05-04 20:08 | 48.92820 | 19.60501 | 24073 ft | 477 kts | 2° |
| 2026-05-04 20:08 | 48.96133 | 19.60762 | 24065 ft | 477 kts | 2° |
| 2026-05-04 20:09 | 48.99407 | 19.61020 | 24067 ft | 477 kts | 2° |
| 2026-05-04 20:09 | 49.02734 | 19.61284 | 24061 ft | 478 kts | 2° |
| 2026-05-04 20:09 | 49.06052 | 19.61547 | 23897 ft | 480 kts | 1° |
| 2026-05-04 20:09 | 49.09379 | 19.61811 | 23380 ft | 475 kts | 1° |
| 2026-05-04 20:10 | 49.12638 | 19.62072 | 22821 ft | 462 kts | 1° |
| 2026-05-04 20:10 | 49.15815 | 19.62326 | 22261 ft | 454 kts | 1° |
| 2026-05-04 20:10 | 49.18957 | 19.62576 | 21714 ft | 450 kts | 1° |
| 2026-05-04 20:10 | 49.22088 | 19.62825 | 21164 ft | 448 kts | 1° |
| 2026-05-04 20:11 | 49.25196 | 19.63072 | 20631 ft | 446 kts | 1° |
| 2026-05-04 20:11 | 49.28287 | 19.63319 | 20077 ft | 444 kts | 1° |
| 2026-05-04 20:11 | 49.31371 | 19.63565 | 19545 ft | 442 kts | 1° |
| 2026-05-04 20:11 | 49.34440 | 19.63811 | 19009 ft | 441 kts | 1° |
| 2026-05-04 20:12 | 49.37503 | 19.64057 | 18461 ft | 440 kts | 1° |
| 2026-05-04 20:12 | 49.40552 | 19.64302 | 17863 ft | 439 kts | 1° |
| 2026-05-04 20:12 | 49.43585 | 19.64807 | 17270 ft | 438 kts | 13° |
| 2026-05-04 20:12 | 49.46383 | 19.66629 | 16747 ft | 437 kts | 31° |
| 2026-05-04 20:13 | 49.48709 | 19.69584 | 16209 ft | 434 kts | 46° |
| 2026-05-04 20:13 | 49.50784 | 19.72943 | 15648 ft | 430 kts | 44° |
| 2026-05-04 20:13 | 49.53122 | 19.75788 | 14990 ft | 427 kts | 31° |
| 2026-05-04 20:13 | 49.55725 | 19.77888 | 14433 ft | 420 kts | 22° |
| 2026-05-04 20:14 | 49.58349 | 19.79679 | 13917 ft | 418 kts | 23° |
| 2026-05-04 20:14 | 49.61009 | 19.81516 | 13348 ft | 418 kts | 23° |
| 2026-05-04 20:14 | 49.63653 | 19.83367 | 12813 ft | 415 kts | 23° |
| 2026-05-04 20:14 | 49.65423 | 19.84617 | 12465 ft | 414 kts | 24° |
| 2026-05-04 20:15 | 49.68111 | 19.86528 | 11937 ft | 411 kts | 24° |
| 2026-05-04 20:15 | 49.70696 | 19.88375 | 11430 ft | 408 kts | 24° |
| 2026-05-04 20:16 | 49.73260 | 19.90213 | 10917 ft | 405 kts | 24° |
| 2026-05-04 20:16 | 49.75801 | 19.92037 | 10693 ft | 395 kts | 24° |
| 2026-05-04 20:16 | 49.78257 | 19.93801 | 10504 ft | 395 kts | 24° |
| 2026-05-04 20:16 | 49.80755 | 19.95596 | 10341 ft | 399 kts | 24° |
| 2026-05-04 20:17 | 49.83269 | 19.97405 | 10151 ft | 398 kts | 24° |
| 2026-05-04 20:17 | 49.85780 | 19.99214 | 9893 ft | 399 kts | 24° |
| 2026-05-04 20:17 | 49.88306 | 20.01037 | 9426 ft | 397 kts | 24° |
| 2026-05-04 20:17 | 49.90793 | 20.02834 | 9022 ft | 391 kts | 24° |
| 2026-05-04 20:18 | 49.93237 | 20.04602 | 8635 ft | 387 kts | 24° |
| 2026-05-04 20:18 | 49.95677 | 20.06367 | 8249 ft | 385 kts | 24° |
| 2026-05-04 20:18 | 49.98097 | 20.08120 | 7960 ft | 380 kts | 24° |
| 2026-05-04 20:18 | 50.00450 | 20.09844 | 7793 ft | 366 kts | 27° |
| 2026-05-04 20:19 | 50.02421 | 20.12199 | 7612 ft | 354 kts | 49° |
| 2026-05-04 20:19 | 50.03734 | 20.15368 | 7312 ft | 346 kts | 67° |
| 2026-05-04 20:19 | 50.04477 | 20.18882 | 6896 ft | 339 kts | 69° |
| 2026-05-04 20:19 | 50.05810 | 20.21750 | 6503 ft | 327 kts | 37° |
| 2026-05-04 20:20 | 50.07804 | 20.23131 | 6183 ft | 309 kts | 5° |
| 2026-05-04 20:20 | 50.09868 | 20.22932 | 5891 ft | 290 kts | 340° |
| 2026-05-04 20:20 | 50.11465 | 20.21311 | 5791 ft | 263 kts | 306° |
| 2026-05-04 20:20 | 50.12208 | 20.18849 | 5599 ft | 245 kts | 281° |
| 2026-05-04 20:21 | 50.12417 | 20.16260 | 5303 ft | 237 kts | 271° |
| 2026-05-04 20:21 | 50.12409 | 20.13729 | 5016 ft | 231 kts | 265° |
| 2026-05-04 20:21 | 50.12038 | 20.08941 | 4457 ft | 212 kts | 257° |
| 2026-05-04 20:22 | 50.11741 | 20.06745 | 4174 ft | 204 kts | 256° |
| 2026-05-04 20:22 | 50.11443 | 20.04649 | 3920 ft | 195 kts | 256° |
| 2026-05-04 20:22 | 50.11159 | 20.02647 | 3652 ft | 177 kts | 256° |
| 2026-05-04 20:22 | 50.10906 | 20.00857 | 3435 ft | 168 kts | 256° |
| 2026-05-04 20:23 | 50.10651 | 19.99060 | 3219 ft | 170 kts | 256° |
| 2026-05-04 20:23 | 50.10406 | 19.97314 | 2990 ft | 159 kts | 256° |
| 2026-05-04 20:23 | 50.10176 | 19.95682 | 2799 ft | 152 kts | 256° |
| 2026-05-04 20:23 | 50.09953 | 19.94097 | 2608 ft | 149 kts | 256° |
| 2026-05-04 20:24 | 50.09729 | 19.92499 | 2417 ft | 152 kts | 256° |
| 2026-05-04 20:24 | 50.09501 | 19.90879 | 2213 ft | 154 kts | 256° |
| 2026-05-04 20:24 | 50.09274 | 19.89255 | 2051 ft | 150 kts | 256° |
| 2026-05-04 20:24 | 50.09056 | 19.87699 | 1806 ft | 144 kts | 256° |
| 2026-05-04 20:25 | 50.08853 | 19.86247 | 1619 ft | 130 kts | 257° |
| 2026-05-04 20:25 | 50.08670 | 19.84936 | 1433 ft | 118 kts | 257° |
| 2026-05-04 20:25 | 50.08489 | 19.83669 | 1186 ft | 124 kts | 256° |
| 2026-05-04 20:25 | 50.08307 | 19.82334 | 1098 ft | 134 kts | 258° |
| 2026-05-04 20:26 | 50.08114 | 19.80858 | 990 ft | 143 kts | 258° |
| 2026-05-04 20:26 | 50.07929 | 19.79514 | 833 ft | 138 kts | 256° |
| 2026-05-04 20:26 | 50.07732 | 19.78173 | 798 ft | 103 kts | 256° |
| 2026-05-04 20:26 | 50.07617 | 19.77381 | 799 ft | 50 kts | 256° |
| 2026-05-04 20:27 | 50.07564 | 19.76974 | 801 ft | 36 kts | 258° |
| 2026-05-04 20:27 | 50.07458 | 19.76861 | 800 ft | 18 kts | 167° |
| 2026-05-04 20:27 | 50.07363 | 19.76895 | 799 ft | 7 kts | 167° |
| 2026-05-04 20:27 | 50.07326 | 19.76962 | 799 ft | 10 kts | 104° |
| 2026-05-04 20:28 | 50.07336 | 19.77082 | 799 ft | 12 kts | 84° |
| 2026-05-04 20:28 | 50.07353 | 19.77235 | 799 ft | 16 kts | 78° |
| 2026-05-04 20:28 | 50.07376 | 19.77426 | 799 ft | 20 kts | 79° |
| 2026-05-04 20:28 | 50.07403 | 19.77653 | 799 ft | 23 kts | 79° |
| 2026-05-04 20:29 | 50.07440 | 19.77910 | 799 ft | 26 kts | 77° |
| 2026-05-04 20:29 | 50.07481 | 19.78195 | 799 ft | 28 kts | 79° |
| 2026-05-04 20:29 | 50.07522 | 19.78507 | 799 ft | 31 kts | 78° |
| 2026-05-04 20:29 | 50.07569 | 19.78836 | 799 ft | 29 kts | 77° |
| 2026-05-04 20:30 | 50.07612 | 19.79156 | 799 ft | 31 kts | 78° |
| 2026-05-04 20:30 | 50.07660 | 19.79493 | 799 ft | 33 kts | 78° |
| 2026-05-04 20:30 | 50.07677 | 19.79663 | 799 ft | 1 kts | 88° |
| 2026-05-04 20:30 | 50.07671 | 19.79675 | 799 ft | 3 kts | 123° |
| 2026-05-04 20:31 | 50.07640 | 19.79701 | 799 ft | 7 kts | 159° |
| 2026-05-04 20:31 | 50.07601 | 19.79717 | 799 ft | 10 kts | 166° |
| 2026-05-04 20:31 | 50.07515 | 19.79743 | 799 ft | 15 kts | 167° |
| 2026-05-04 20:31 | 50.07499 | 19.79749 | 799 ft | 3 kts | 166° |
| 2026-05-04 20:32 | 50.07455 | 19.79725 | 799 ft | 7 kts | 240° |
| 2026-05-04 20:32 | 50.07448 | 19.79688 | 799 ft | 0 kts | 256° |
| 2026-05-04 20:32 | 50.07448 | 19.79686 | 799 ft | 0 kts | 257° |